sensor_id;sensor_type;location;lat;lon;timestamp;temperature;humidity
79055;DHT22;68452;47.186;-1.528;2023-04-16T00:00:23;10.90;58.00
79055;DHT22;68452;47.186;-1.528;2023-04-16T00:02:49;10.90;58.30
79055;DHT22;68452;47.186;-1.528;2023-04-16T00:05:15;10.90;58.10
79055;DHT22;68452;47.186;-1.528;2023-04-16T00:07:41;10.90;58.50
79055;DHT22;68452;47.186;-1.528;2023-04-16T00:10:07;10.90;57.70
79055;DHT22;68452;47.186;-1.528;2023-04-16T00:12:33;10.90;57.60
79055;DHT22;68452;47.186;-1.528;2023-04-16T00:14:58;11.00;57.30
79055;DHT22;68452;47.186;-1.528;2023-04-16T00:17:24;10.90;57.20
79055;DHT22;68452;47.186;-1.528;2023-04-16T00:19:50;11.00;57.60
79055;DHT22;68452;47.186;-1.528;2023-04-16T00:22:16;11.00;57.50
79055;DHT22;68452;47.186;-1.528;2023-04-16T00:24:42;11.00;57.80
79055;DHT22;68452;47.186;-1.528;2023-04-16T00:27:07;11.00;57.70
79055;DHT22;68452;47.186;-1.528;2023-04-16T00:29:33;10.90;57.60
79055;DHT22;68452;47.186;-1.528;2023-04-16T00:31:59;11.00;57.80
79055;DHT22;68452;47.186;-1.528;2023-04-16T00:34:25;10.90;57.60
79055;DHT22;68452;47.186;-1.528;2023-04-16T00:36:51;10.90;57.50
79055;DHT22;68452;47.186;-1.528;2023-04-16T00:39:17;10.90;57.60
79055;DHT22;68452;47.186;-1.528;2023-04-16T00:41:43;10.90;57.60
79055;DHT22;68452;47.186;-1.528;2023-04-16T00:44:09;10.80;57.80
79055;DHT22;68452;47.186;-1.528;2023-04-16T00:46:35;10.90;57.50
79055;DHT22;68452;47.186;-1.528;2023-04-16T00:49:02;10.80;57.60
79055;DHT22;68452;47.186;-1.528;2023-04-16T00:51:28;10.80;58.00
79055;DHT22;68452;47.186;-1.528;2023-04-16T00:53:56;10.70;58.50
79055;DHT22;68452;47.186;-1.528;2023-04-16T00:56:23;10.70;58.70
79055;DHT22;68452;47.186;-1.528;2023-04-16T00:58:50;10.70;58.60
79055;DHT22;68452;47.186;-1.528;2023-04-16T01:01:15;10.70;58.90
79055;DHT22;68452;47.186;-1.528;2023-04-16T01:03:46;10.70;59.10
79055;DHT22;68452;47.186;-1.528;2023-04-16T01:06:13;10.70;59.50
79055;DHT22;68452;47.186;-1.528;2023-04-16T01:08:39;10.70;59.20
79055;DHT22;68452;47.186;-1.528;2023-04-16T01:11:05;10.70;59.30
79055;DHT22;68452;47.186;-1.528;2023-04-16T01:13:31;10.60;59.30
79055;DHT22;68452;47.186;-1.528;2023-04-16T01:15:58;10.70;59.40
79055;DHT22;68452;47.186;-1.528;2023-04-16T01:18:25;10.60;59.40
79055;DHT22;68452;47.186;-1.528;2023-04-16T01:20:51;10.60;59.60
79055;DHT22;68452;47.186;-1.528;2023-04-16T01:23:17;10.60;59.70
79055;DHT22;68452;47.186;-1.528;2023-04-16T01:25:44;10.70;60.00
79055;DHT22;68452;47.186;-1.528;2023-04-16T01:28:10;10.70;60.10
79055;DHT22;68452;47.186;-1.528;2023-04-16T01:30:36;10.60;60.10
79055;DHT22;68452;47.186;-1.528;2023-04-16T01:33:02;10.60;60.10
79055;DHT22;68452;47.186;-1.528;2023-04-16T01:35:28;10.60;59.60
79055;DHT22;68452;47.186;-1.528;2023-04-16T01:37:53;10.60;60.30
79055;DHT22;68452;47.186;-1.528;2023-04-16T01:40:19;10.50;60.40
79055;DHT22;68452;47.186;-1.528;2023-04-16T01:42:45;10.50;60.60
79055;DHT22;68452;47.186;-1.528;2023-04-16T01:45:11;10.50;60.90
79055;DHT22;68452;47.186;-1.528;2023-04-16T01:47:37;10.60;60.60
79055;DHT22;68452;47.186;-1.528;2023-04-16T01:50:03;10.60;61.00
79055;DHT22;68452;47.186;-1.528;2023-04-16T01:52:30;10.60;60.80
79055;DHT22;68452;47.186;-1.528;2023-04-16T01:54:55;10.60;60.90
79055;DHT22;68452;47.186;-1.528;2023-04-16T01:57:21;10.60;60.90
79055;DHT22;68452;47.186;-1.528;2023-04-16T01:59:47;10.50;60.90
79055;DHT22;68452;47.186;-1.528;2023-04-16T02:02:14;10.60;61.00
79055;DHT22;68452;47.186;-1.528;2023-04-16T02:04:43;10.60;61.00
79055;DHT22;68452;47.186;-1.528;2023-04-16T02:07:12;10.60;61.00
79055;DHT22;68452;47.186;-1.528;2023-04-16T02:09:39;10.60;61.30
79055;DHT22;68452;47.186;-1.528;2023-04-16T02:12:06;10.60;61.10
79055;DHT22;68452;47.186;-1.528;2023-04-16T02:14:32;10.60;61.00
79055;DHT22;68452;47.186;-1.528;2023-04-16T02:16:59;10.50;61.20
79055;DHT22;68452;47.186;-1.528;2023-04-16T02:19:25;10.60;61.50
79055;DHT22;68452;47.186;-1.528;2023-04-16T02:21:52;10.50;61.50
79055;DHT22;68452;47.186;-1.528;2023-04-16T02:24:18;10.60;61.50
79055;DHT22;68452;47.186;-1.528;2023-04-16T02:26:44;10.60;61.50
79055;DHT22;68452;47.186;-1.528;2023-04-16T02:29:10;10.60;61.50
79055;DHT22;68452;47.186;-1.528;2023-04-16T02:31:36;10.60;61.70
79055;DHT22;68452;47.186;-1.528;2023-04-16T02:34:02;10.60;61.80
79055;DHT22;68452;47.186;-1.528;2023-04-16T02:36:29;10.60;61.90
79055;DHT22;68452;47.186;-1.528;2023-04-16T02:38:56;10.60;61.70
79055;DHT22;68452;47.186;-1.528;2023-04-16T02:41:22;10.50;61.70
79055;DHT22;68452;47.186;-1.528;2023-04-16T02:43:48;10.50;61.90
79055;DHT22;68452;47.186;-1.528;2023-04-16T02:46:14;10.50;61.90
79055;DHT22;68452;47.186;-1.528;2023-04-16T02:48:40;10.50;61.70
79055;DHT22;68452;47.186;-1.528;2023-04-16T02:51:06;10.40;62.00
79055;DHT22;68452;47.186;-1.528;2023-04-16T02:53:33;10.40;62.20
79055;DHT22;68452;47.186;-1.528;2023-04-16T02:55:59;10.30;62.20
79055;DHT22;68452;47.186;-1.528;2023-04-16T02:58:25;10.20;62.70
79055;DHT22;68452;47.186;-1.528;2023-04-16T03:00:52;10.20;63.00
79055;DHT22;68452;47.186;-1.528;2023-04-16T03:03:18;10.20;63.10
79055;DHT22;68452;47.186;-1.528;2023-04-16T03:05:44;10.20;63.20
79055;DHT22;68452;47.186;-1.528;2023-04-16T03:08:10;10.10;63.10
79055;DHT22;68452;47.186;-1.528;2023-04-16T03:10:36;10.00;63.30
79055;DHT22;68452;47.186;-1.528;2023-04-16T03:13:02;9.90;63.80
79055;DHT22;68452;47.186;-1.528;2023-04-16T03:15:29;9.90;63.70
79055;DHT22;68452;47.186;-1.528;2023-04-16T03:17:55;9.90;63.90
79055;DHT22;68452;47.186;-1.528;2023-04-16T03:20:21;9.90;63.70
79055;DHT22;68452;47.186;-1.528;2023-04-16T03:22:48;9.80;63.80
79055;DHT22;68452;47.186;-1.528;2023-04-16T03:25:14;9.80;63.90
79055;DHT22;68452;47.186;-1.528;2023-04-16T03:27:40;9.80;63.90
79055;DHT22;68452;47.186;-1.528;2023-04-16T03:30:07;9.80;64.00
79055;DHT22;68452;47.186;-1.528;2023-04-16T03:32:33;9.70;64.00
79055;DHT22;68452;47.186;-1.528;2023-04-16T03:34:59;9.70;64.20
79055;DHT22;68452;47.186;-1.528;2023-04-16T03:37:25;9.60;64.10
79055;DHT22;68452;47.186;-1.528;2023-04-16T03:39:51;9.60;64.10
79055;DHT22;68452;47.186;-1.528;2023-04-16T03:42:17;9.60;64.40
79055;DHT22;68452;47.186;-1.528;2023-04-16T03:44:43;9.50;64.30
79055;DHT22;68452;47.186;-1.528;2023-04-16T03:47:08;9.50;64.40
79055;DHT22;68452;47.186;-1.528;2023-04-16T03:49:34;9.50;64.70
79055;DHT22;68452;47.186;-1.528;2023-04-16T03:52:00;9.50;64.70
79055;DHT22;68452;47.186;-1.528;2023-04-16T03:54:26;9.40;64.70
79055;DHT22;68452;47.186;-1.528;2023-04-16T03:56:51;9.30;65.20
79055;DHT22;68452;47.186;-1.528;2023-04-16T03:59:17;9.30;65.40
79055;DHT22;68452;47.186;-1.528;2023-04-16T04:01:44;9.30;65.50
79055;DHT22;68452;47.186;-1.528;2023-04-16T04:04:10;9.30;65.50
79055;DHT22;68452;47.186;-1.528;2023-04-16T04:06:36;9.30;65.40
79055;DHT22;68452;47.186;-1.528;2023-04-16T04:09:03;9.20;65.80
79055;DHT22;68452;47.186;-1.528;2023-04-16T04:11:28;9.20;65.90
79055;DHT22;68452;47.186;-1.528;2023-04-16T04:13:54;9.10;65.80
79055;DHT22;68452;47.186;-1.528;2023-04-16T04:16:20;9.20;65.80
79055;DHT22;68452;47.186;-1.528;2023-04-16T04:18:46;9.10;65.80
79055;DHT22;68452;47.186;-1.528;2023-04-16T04:21:12;9.10;65.90
79055;DHT22;68452;47.186;-1.528;2023-04-16T04:23:37;9.00;66.10
79055;DHT22;68452;47.186;-1.528;2023-04-16T04:26:03;9.00;66.00
79055;DHT22;68452;47.186;-1.528;2023-04-16T04:28:34;8.90;66.10
79055;DHT22;68452;47.186;-1.528;2023-04-16T04:31:00;8.90;66.40
79055;DHT22;68452;47.186;-1.528;2023-04-16T04:33:26;8.90;66.40
79055;DHT22;68452;47.186;-1.528;2023-04-16T04:35:53;8.90;66.30
79055;DHT22;68452;47.186;-1.528;2023-04-16T04:38:18;8.90;66.20
79055;DHT22;68452;47.186;-1.528;2023-04-16T04:40:50;8.90;66.30
79055;DHT22;68452;47.186;-1.528;2023-04-16T04:43:16;8.90;66.10
79055;DHT22;68452;47.186;-1.528;2023-04-16T04:45:42;8.80;66.10
79055;DHT22;68452;47.186;-1.528;2023-04-16T04:48:08;8.80;66.10
79055;DHT22;68452;47.186;-1.528;2023-04-16T04:50:35;8.80;66.20
79055;DHT22;68452;47.186;-1.528;2023-04-16T04:53:01;8.80;66.10
79055;DHT22;68452;47.186;-1.528;2023-04-16T04:55:27;8.70;66.20
79055;DHT22;68452;47.186;-1.528;2023-04-16T04:57:52;8.70;66.80
79055;DHT22;68452;47.186;-1.528;2023-04-16T05:00:18;8.70;66.40
79055;DHT22;68452;47.186;-1.528;2023-04-16T05:02:44;8.60;66.40
79055;DHT22;68452;47.186;-1.528;2023-04-16T05:05:10;8.50;66.50
79055;DHT22;68452;47.186;-1.528;2023-04-16T05:07:36;8.60;66.60
79055;DHT22;68452;47.186;-1.528;2023-04-16T05:10:01;8.60;66.40
79055;DHT22;68452;47.186;-1.528;2023-04-16T05:12:27;8.60;66.50
79055;DHT22;68452;47.186;-1.528;2023-04-16T05:14:53;8.70;66.30
79055;DHT22;68452;47.186;-1.528;2023-04-16T05:17:19;8.60;66.40
79055;DHT22;68452;47.186;-1.528;2023-04-16T05:19:45;8.50;66.60
79055;DHT22;68452;47.186;-1.528;2023-04-16T05:22:10;8.50;66.60
79055;DHT22;68452;47.186;-1.528;2023-04-16T05:24:37;8.50;66.60
79055;DHT22;68452;47.186;-1.528;2023-04-16T05:27:02;8.50;66.60
79055;DHT22;68452;47.186;-1.528;2023-04-16T05:29:28;8.40;66.60
79055;DHT22;68452;47.186;-1.528;2023-04-16T05:31:54;8.40;66.70
79055;DHT22;68452;47.186;-1.528;2023-04-16T05:34:20;8.40;67.00
79055;DHT22;68452;47.186;-1.528;2023-04-16T05:36:45;8.40;67.10
79055;DHT22;68452;47.186;-1.528;2023-04-16T05:39:11;8.40;67.00
79055;DHT22;68452;47.186;-1.528;2023-04-16T05:41:37;8.40;67.30
79055;DHT22;68452;47.186;-1.528;2023-04-16T05:44:03;8.40;67.30
79055;DHT22;68452;47.186;-1.528;2023-04-16T05:46:29;8.50;67.20
79055;DHT22;68452;47.186;-1.528;2023-04-16T05:48:55;8.40;67.30
79055;DHT22;68452;47.186;-1.528;2023-04-16T05:51:21;8.50;67.00
79055;DHT22;68452;47.186;-1.528;2023-04-16T05:53:50;8.50;67.10
79055;DHT22;68452;47.186;-1.528;2023-04-16T05:56:16;8.50;67.20
79055;DHT22;68452;47.186;-1.528;2023-04-16T05:58:42;8.50;67.30
79055;DHT22;68452;47.186;-1.528;2023-04-16T06:01:09;8.50;67.50
79055;DHT22;68452;47.186;-1.528;2023-04-16T06:03:35;8.60;67.60
79055;DHT22;68452;47.186;-1.528;2023-04-16T06:06:01;8.60;67.40
79055;DHT22;68452;47.186;-1.528;2023-04-16T06:08:27;8.60;67.40
79055;DHT22;68452;47.186;-1.528;2023-04-16T06:10:53;8.70;67.30
79055;DHT22;68452;47.186;-1.528;2023-04-16T06:13:18;8.70;67.10
79055;DHT22;68452;47.186;-1.528;2023-04-16T06:15:44;8.70;67.30
79055;DHT22;68452;47.186;-1.528;2023-04-16T06:18:10;8.70;67.30
79055;DHT22;68452;47.186;-1.528;2023-04-16T06:20:36;8.70;67.30
79055;DHT22;68452;47.186;-1.528;2023-04-16T06:23:02;8.80;67.50
79055;DHT22;68452;47.186;-1.528;2023-04-16T06:25:27;8.80;67.50
79055;DHT22;68452;47.186;-1.528;2023-04-16T06:27:53;8.90;67.40
79055;DHT22;68452;47.186;-1.528;2023-04-16T06:30:19;9.00;67.40
79055;DHT22;68452;47.186;-1.528;2023-04-16T06:32:45;9.00;67.30
79055;DHT22;68452;47.186;-1.528;2023-04-16T06:35:11;9.10;67.20
79055;DHT22;68452;47.186;-1.528;2023-04-16T06:37:37;9.10;67.40
79055;DHT22;68452;47.186;-1.528;2023-04-16T06:40:03;9.20;67.50
79055;DHT22;68452;47.186;-1.528;2023-04-16T06:42:29;9.20;67.30
79055;DHT22;68452;47.186;-1.528;2023-04-16T06:44:55;9.30;66.90
79055;DHT22;68452;47.186;-1.528;2023-04-16T06:47:21;9.40;67.20
79055;DHT22;68452;47.186;-1.528;2023-04-16T06:49:46;9.50;67.10
79055;DHT22;68452;47.186;-1.528;2023-04-16T06:52:12;9.50;67.10
79055;DHT22;68452;47.186;-1.528;2023-04-16T06:54:38;9.60;66.90
79055;DHT22;68452;47.186;-1.528;2023-04-16T06:57:04;9.70;66.80
79055;DHT22;68452;47.186;-1.528;2023-04-16T06:59:30;9.70;66.90
79055;DHT22;68452;47.186;-1.528;2023-04-16T07:01:56;9.80;66.80
79055;DHT22;68452;47.186;-1.528;2023-04-16T07:04:22;9.90;66.50
79055;DHT22;68452;47.186;-1.528;2023-04-16T07:06:48;10.00;66.20
79055;DHT22;68452;47.186;-1.528;2023-04-16T07:09:14;10.20;65.80
79055;DHT22;68452;47.186;-1.528;2023-04-16T07:11:40;10.20;65.70
79055;DHT22;68452;47.186;-1.528;2023-04-16T07:14:06;10.30;65.40
79055;DHT22;68452;47.186;-1.528;2023-04-16T07:16:32;10.40;65.30
79055;DHT22;68452;47.186;-1.528;2023-04-16T07:18:58;10.60;65.20
79055;DHT22;68452;47.186;-1.528;2023-04-16T07:21:24;10.70;64.80
79055;DHT22;68452;47.186;-1.528;2023-04-16T07:23:50;10.80;64.80
79055;DHT22;68452;47.186;-1.528;2023-04-16T07:26:16;10.90;64.60
79055;DHT22;68452;47.186;-1.528;2023-04-16T07:28:42;11.10;63.90
79055;DHT22;68452;47.186;-1.528;2023-04-16T07:31:07;11.20;63.80
79055;DHT22;68452;47.186;-1.528;2023-04-16T07:33:33;11.30;64.00
79055;DHT22;68452;47.186;-1.528;2023-04-16T07:35:59;11.30;63.60
79055;DHT22;68452;47.186;-1.528;2023-04-16T07:38:25;11.40;63.10
79055;DHT22;68452;47.186;-1.528;2023-04-16T07:40:51;11.50;62.70
79055;DHT22;68452;47.186;-1.528;2023-04-16T07:43:17;11.50;62.80
79055;DHT22;68452;47.186;-1.528;2023-04-16T07:45:42;11.70;62.50
79055;DHT22;68452;47.186;-1.528;2023-04-16T07:48:08;11.70;63.20
79055;DHT22;68452;47.186;-1.528;2023-04-16T07:50:34;11.70;62.90
79055;DHT22;68452;47.186;-1.528;2023-04-16T07:53:00;11.80;62.90
79055;DHT22;68452;47.186;-1.528;2023-04-16T07:55:26;11.90;62.80
79055;DHT22;68452;47.186;-1.528;2023-04-16T07:57:52;12.00;62.50
79055;DHT22;68452;47.186;-1.528;2023-04-16T08:00:18;12.00;61.90
79055;DHT22;68452;47.186;-1.528;2023-04-16T08:02:44;12.00;61.70
79055;DHT22;68452;47.186;-1.528;2023-04-16T08:05:10;12.20;62.10
79055;DHT22;68452;47.186;-1.528;2023-04-16T08:07:36;12.30;62.10
79055;DHT22;68452;47.186;-1.528;2023-04-16T08:10:02;12.30;61.80
79055;DHT22;68452;47.186;-1.528;2023-04-16T08:12:28;12.30;61.80
79055;DHT22;68452;47.186;-1.528;2023-04-16T08:14:54;12.40;61.90
79055;DHT22;68452;47.186;-1.528;2023-04-16T08:17:20;12.40;61.70
79055;DHT22;68452;47.186;-1.528;2023-04-16T08:19:46;12.40;61.70
79055;DHT22;68452;47.186;-1.528;2023-04-16T08:22:12;12.40;60.90
79055;DHT22;68452;47.186;-1.528;2023-04-16T08:24:38;12.50;61.10
79055;DHT22;68452;47.186;-1.528;2023-04-16T08:27:04;12.60;61.60
79055;DHT22;68452;47.186;-1.528;2023-04-16T08:29:30;12.60;61.10
79055;DHT22;68452;47.186;-1.528;2023-04-16T08:31:56;12.80;60.40
79055;DHT22;68452;47.186;-1.528;2023-04-16T08:34:23;12.90;60.00
79055;DHT22;68452;47.186;-1.528;2023-04-16T08:36:49;13.00;59.20
79055;DHT22;68452;47.186;-1.528;2023-04-16T08:39:15;13.10;58.90
79055;DHT22;68452;47.186;-1.528;2023-04-16T08:41:43;13.10;58.60
79055;DHT22;68452;47.186;-1.528;2023-04-16T08:44:34;13.20;58.40
79055;DHT22;68452;47.186;-1.528;2023-04-16T08:47:02;13.40;58.20
79055;DHT22;68452;47.186;-1.528;2023-04-16T08:49:28;13.30;59.10
79055;DHT22;68452;47.186;-1.528;2023-04-16T08:51:55;13.40;59.50
79055;DHT22;68452;47.186;-1.528;2023-04-16T08:54:33;13.40;58.50
79055;DHT22;68452;47.186;-1.528;2023-04-16T08:57:05;13.60;58.90
79055;DHT22;68452;47.186;-1.528;2023-04-16T08:59:32;13.60;57.60
79055;DHT22;68452;47.186;-1.528;2023-04-16T09:01:59;13.70;57.00
79055;DHT22;68452;47.186;-1.528;2023-04-16T09:04:27;13.80;56.10
79055;DHT22;68452;47.186;-1.528;2023-04-16T09:06:54;13.80;55.60
79055;DHT22;68452;47.186;-1.528;2023-04-16T09:09:22;13.80;56.30
79055;DHT22;68452;47.186;-1.528;2023-04-16T09:11:52;13.90;57.30
79055;DHT22;68452;47.186;-1.528;2023-04-16T09:14:19;14.10;57.10
79055;DHT22;68452;47.186;-1.528;2023-04-16T09:16:46;14.10;57.50
79055;DHT22;68452;47.186;-1.528;2023-04-16T09:19:15;14.20;57.30
79055;DHT22;68452;47.186;-1.528;2023-04-16T09:21:42;14.20;55.80
79055;DHT22;68452;47.186;-1.528;2023-04-16T09:24:10;14.20;57.70
79055;DHT22;68452;47.186;-1.528;2023-04-16T09:26:36;14.30;57.10
79055;DHT22;68452;47.186;-1.528;2023-04-16T09:29:03;14.50;56.50
79055;DHT22;68452;47.186;-1.528;2023-04-16T09:31:29;14.60;55.50
79055;DHT22;68452;47.186;-1.528;2023-04-16T09:34:02;14.60;53.50
79055;DHT22;68452;47.186;-1.528;2023-04-16T09:36:28;14.70;55.60
79055;DHT22;68452;47.186;-1.528;2023-04-16T09:38:55;14.70;55.80
79055;DHT22;68452;47.186;-1.528;2023-04-16T09:41:28;14.80;54.90
79055;DHT22;68452;47.186;-1.528;2023-04-16T09:46:29;14.90;53.80
79055;DHT22;68452;47.186;-1.528;2023-04-16T09:48:55;15.00;54.60
79055;DHT22;68452;47.186;-1.528;2023-04-16T09:51:21;15.00;53.70
79055;DHT22;68452;47.186;-1.528;2023-04-16T09:53:51;15.10;51.60
79055;DHT22;68452;47.186;-1.528;2023-04-16T09:56:22;15.10;51.70
79055;DHT22;68452;47.186;-1.528;2023-04-16T09:58:49;15.30;51.10
79055;DHT22;68452;47.186;-1.528;2023-04-16T10:01:17;15.40;52.90
79055;DHT22;68452;47.186;-1.528;2023-04-16T10:03:42;15.40;52.30
79055;DHT22;68452;47.186;-1.528;2023-04-16T10:06:19;15.50;52.50
79055;DHT22;68452;47.186;-1.528;2023-04-16T10:08:49;15.70;50.90
79055;DHT22;68452;47.186;-1.528;2023-04-16T10:11:16;15.80;52.50
79055;DHT22;68452;47.186;-1.528;2023-04-16T10:13:42;15.90;51.00
79055;DHT22;68452;47.186;-1.528;2023-04-16T10:16:08;16.00;49.00
79055;DHT22;68452;47.186;-1.528;2023-04-16T10:18:41;16.00;49.80
79055;DHT22;68452;47.186;-1.528;2023-04-16T10:21:08;16.00;49.40
79055;DHT22;68452;47.186;-1.528;2023-04-16T10:23:41;16.20;48.70
79055;DHT22;68452;47.186;-1.528;2023-04-16T10:26:07;16.30;48.00
79055;DHT22;68452;47.186;-1.528;2023-04-16T10:28:33;16.20;46.90
79055;DHT22;68452;47.186;-1.528;2023-04-16T10:31:03;16.00;47.70
79055;DHT22;68452;47.186;-1.528;2023-04-16T10:33:39;16.00;46.50
79055;DHT22;68452;47.186;-1.528;2023-04-16T10:36:15;16.10;48.20
79055;DHT22;68452;47.186;-1.528;2023-04-16T10:38:46;16.20;48.60
79055;DHT22;68452;47.186;-1.528;2023-04-16T10:41:12;16.40;48.30
79055;DHT22;68452;47.186;-1.528;2023-04-16T10:43:47;16.40;47.90
79055;DHT22;68452;47.186;-1.528;2023-04-16T10:46:25;16.50;47.60
79055;DHT22;68452;47.186;-1.528;2023-04-16T10:48:59;16.60;46.60
79055;DHT22;68452;47.186;-1.528;2023-04-16T10:51:29;16.80;46.50
79055;DHT22;68452;47.186;-1.528;2023-04-16T10:56:36;17.00;46.50
79055;DHT22;68452;47.186;-1.528;2023-04-16T10:59:09;16.90;45.80
79055;DHT22;68452;47.186;-1.528;2023-04-16T11:01:44;17.00;45.90
79055;DHT22;68452;47.186;-1.528;2023-04-16T11:07:18;17.30;45.10
79055;DHT22;68452;47.186;-1.528;2023-04-16T11:10:00;17.50;45.60
79055;DHT22;68452;47.186;-1.528;2023-04-16T11:12:46;17.60;45.00
79055;DHT22;68452;47.186;-1.528;2023-04-16T11:15:15;17.80;42.90
79055;DHT22;68452;47.186;-1.528;2023-04-16T11:17:51;17.80;42.90
79055;DHT22;68452;47.186;-1.528;2023-04-16T11:20:19;17.70;42.10
79055;DHT22;68452;47.186;-1.528;2023-04-16T11:22:46;17.50;42.30
79055;DHT22;68452;47.186;-1.528;2023-04-16T11:25:11;17.50;42.90
79055;DHT22;68452;47.186;-1.528;2023-04-16T11:27:37;17.40;42.60
79055;DHT22;68452;47.186;-1.528;2023-04-16T11:30:05;17.30;43.50
79055;DHT22;68452;47.186;-1.528;2023-04-16T11:32:36;17.30;43.50
79055;DHT22;68452;47.186;-1.528;2023-04-16T11:35:16;17.40;42.90
79055;DHT22;68452;47.186;-1.528;2023-04-16T11:37:43;17.60;41.90
79055;DHT22;68452;47.186;-1.528;2023-04-16T11:40:09;17.70;40.70
79055;DHT22;68452;47.186;-1.528;2023-04-16T11:42:39;17.70;41.10
79055;DHT22;68452;47.186;-1.528;2023-04-16T11:45:07;17.80;40.80
79055;DHT22;68452;47.186;-1.528;2023-04-16T11:47:45;17.80;41.30
79055;DHT22;68452;47.186;-1.528;2023-04-16T11:50:23;18.00;41.90
79055;DHT22;68452;47.186;-1.528;2023-04-16T11:52:50;18.30;42.50
79055;DHT22;68452;47.186;-1.528;2023-04-16T11:55:17;18.30;41.00
79055;DHT22;68452;47.186;-1.528;2023-04-16T11:57:43;18.30;41.20
79055;DHT22;68452;47.186;-1.528;2023-04-16T12:00:11;18.20;40.70
79055;DHT22;68452;47.186;-1.528;2023-04-16T12:02:51;18.20;42.00
79055;DHT22;68452;47.186;-1.528;2023-04-16T12:05:33;18.30;42.00
79055;DHT22;68452;47.186;-1.528;2023-04-16T12:08:01;18.40;42.80
79055;DHT22;68452;47.186;-1.528;2023-04-16T12:10:28;18.40;41.70
79055;DHT22;68452;47.186;-1.528;2023-04-16T12:13:14;18.50;41.00
79055;DHT22;68452;47.186;-1.528;2023-04-16T12:15:49;18.40;40.00
79055;DHT22;68452;47.186;-1.528;2023-04-16T12:18:16;18.40;40.40
79055;DHT22;68452;47.186;-1.528;2023-04-16T12:20:43;18.40;39.80
79055;DHT22;68452;47.186;-1.528;2023-04-16T12:23:21;18.60;38.50
79055;DHT22;68452;47.186;-1.528;2023-04-16T12:25:46;18.70;38.00
79055;DHT22;68452;47.186;-1.528;2023-04-16T12:28:33;18.60;39.30
79055;DHT22;68452;47.186;-1.528;2023-04-16T12:31:01;18.90;38.50
79055;DHT22;68452;47.186;-1.528;2023-04-16T12:33:27;19.10;38.20
79055;DHT22;68452;47.186;-1.528;2023-04-16T12:35:53;19.30;39.00
79055;DHT22;68452;47.186;-1.528;2023-04-16T12:38:19;19.60;36.40
79055;DHT22;68452;47.186;-1.528;2023-04-16T12:40:45;19.70;35.70
79055;DHT22;68452;47.186;-1.528;2023-04-16T12:43:12;20.00;36.00
79055;DHT22;68452;47.186;-1.528;2023-04-16T12:45:40;20.10;35.40
79055;DHT22;68452;47.186;-1.528;2023-04-16T12:48:06;20.30;35.40
79055;DHT22;68452;47.186;-1.528;2023-04-16T12:50:32;20.40;36.40
79055;DHT22;68452;47.186;-1.528;2023-04-16T12:52:58;20.60;36.20
79055;DHT22;68452;47.186;-1.528;2023-04-16T12:55:25;20.50;34.40
79055;DHT22;68452;47.186;-1.528;2023-04-16T12:57:51;20.80;36.20
79055;DHT22;68452;47.186;-1.528;2023-04-16T13:00:20;21.00;33.40
79055;DHT22;68452;47.186;-1.528;2023-04-16T13:02:46;20.90;34.20
79055;DHT22;68452;47.186;-1.528;2023-04-16T13:05:12;20.80;33.60
79055;DHT22;68452;47.186;-1.528;2023-04-16T13:07:41;20.70;34.00
79055;DHT22;68452;47.186;-1.528;2023-04-16T13:10:07;20.40;34.00
79055;DHT22;68452;47.186;-1.528;2023-04-16T13:12:34;20.50;35.70
79055;DHT22;68452;47.186;-1.528;2023-04-16T13:14:59;20.60;34.40
79055;DHT22;68452;47.186;-1.528;2023-04-16T13:17:25;20.60;33.80
79055;DHT22;68452;47.186;-1.528;2023-04-16T13:19:51;20.50;34.60
79055;DHT22;68452;47.186;-1.528;2023-04-16T13:22:17;20.40;37.20
79055;DHT22;68452;47.186;-1.528;2023-04-16T13:24:43;20.60;35.90
79055;DHT22;68452;47.186;-1.528;2023-04-16T13:27:09;20.70;35.90
79055;DHT22;68452;47.186;-1.528;2023-04-16T13:29:35;20.80;35.80
79055;DHT22;68452;47.186;-1.528;2023-04-16T13:32:01;21.00;34.90
79055;DHT22;68452;47.186;-1.528;2023-04-16T13:34:27;21.30;35.40
79055;DHT22;68452;47.186;-1.528;2023-04-16T13:36:53;21.50;35.30
79055;DHT22;68452;47.186;-1.528;2023-04-16T13:39:19;21.80;34.00
79055;DHT22;68452;47.186;-1.528;2023-04-16T13:41:45;21.80;33.70
79055;DHT22;68452;47.186;-1.528;2023-04-16T13:44:13;21.70;33.20
79055;DHT22;68452;47.186;-1.528;2023-04-16T13:46:39;21.40;33.70
79055;DHT22;68452;47.186;-1.528;2023-04-16T13:49:05;21.20;34.10
79055;DHT22;68452;47.186;-1.528;2023-04-16T13:51:31;21.30;32.90
79055;DHT22;68452;47.186;-1.528;2023-04-16T13:53:57;21.70;34.30
79055;DHT22;68452;47.186;-1.528;2023-04-16T13:56:23;23.20;32.10
79055;DHT22;68452;47.186;-1.528;2023-04-16T13:58:50;24.10;30.40
79055;DHT22;68452;47.186;-1.528;2023-04-16T14:01:16;23.60;31.40
79055;DHT22;68452;47.186;-1.528;2023-04-16T14:03:42;23.20;32.90
79055;DHT22;68452;47.186;-1.528;2023-04-16T14:06:08;22.70;33.10
79055;DHT22;68452;47.186;-1.528;2023-04-16T14:08:34;23.00;33.20
79055;DHT22;68452;47.186;-1.528;2023-04-16T14:11:00;24.00;31.90
79055;DHT22;68452;47.186;-1.528;2023-04-16T14:13:26;25.00;31.20
79055;DHT22;68452;47.186;-1.528;2023-04-16T14:15:53;26.40;28.80
79055;DHT22;68452;47.186;-1.528;2023-04-16T14:18:19;27.10;28.00
79055;DHT22;68452;47.186;-1.528;2023-04-16T14:20:45;27.50;28.30
79055;DHT22;68452;47.186;-1.528;2023-04-16T14:23:11;27.30;28.60
79055;DHT22;68452;47.186;-1.528;2023-04-16T14:25:37;27.20;28.20
79055;DHT22;68452;47.186;-1.528;2023-04-16T14:28:03;27.10;29.60
79055;DHT22;68452;47.186;-1.528;2023-04-16T14:30:30;27.10;27.50
79055;DHT22;68452;47.186;-1.528;2023-04-16T14:32:57;27.70;27.80
79055;DHT22;68452;47.186;-1.528;2023-04-16T14:35:22;29.70;25.70
79055;DHT22;68452;47.186;-1.528;2023-04-16T14:37:49;32.10;23.80
79055;DHT22;68452;47.186;-1.528;2023-04-16T14:40:15;33.90;21.10
79055;DHT22;68452;47.186;-1.528;2023-04-16T14:42:41;35.60;20.70
79055;DHT22;68452;47.186;-1.528;2023-04-16T14:45:07;36.70;19.30
79055;DHT22;68452;47.186;-1.528;2023-04-16T14:47:34;37.50;19.20
79055;DHT22;68452;47.186;-1.528;2023-04-16T14:50:01;38.00;18.50
79055;DHT22;68452;47.186;-1.528;2023-04-16T14:52:29;38.10;18.30
79055;DHT22;68452;47.186;-1.528;2023-04-16T14:54:56;38.30;17.60
79055;DHT22;68452;47.186;-1.528;2023-04-16T14:57:22;38.40;18.40
79055;DHT22;68452;47.186;-1.528;2023-04-16T14:59:49;38.90;18.40
79055;DHT22;68452;47.186;-1.528;2023-04-16T15:02:15;39.20;17.80
79055;DHT22;68452;47.186;-1.528;2023-04-16T15:04:41;39.00;17.50
79055;DHT22;68452;47.186;-1.528;2023-04-16T15:07:07;38.90;18.00
79055;DHT22;68452;47.186;-1.528;2023-04-16T15:09:37;38.60;18.10
79055;DHT22;68452;47.186;-1.528;2023-04-16T15:12:03;38.30;17.40
79055;DHT22;68452;47.186;-1.528;2023-04-16T15:14:29;37.80;18.00
79055;DHT22;68452;47.186;-1.528;2023-04-16T15:16:55;37.00;18.70
79055;DHT22;68452;47.186;-1.528;2023-04-16T15:19:21;35.60;19.60
79055;DHT22;68452;47.186;-1.528;2023-04-16T15:21:47;33.30;22.10
79055;DHT22;68452;47.186;-1.528;2023-04-16T15:24:13;30.90;22.00
79055;DHT22;68452;47.186;-1.528;2023-04-16T15:26:38;29.10;23.60